Terminal Aerodrome Forecast
Issued by NWS Charleston, WV

Current Version | Previous Version | Graphics & Text | Print | Product List | Glossary On
Versions: 1 2 3 4 5 6 7 8 9 10 11 12 13 14 15 16 17 18 19
000
FTUS41 KRLX 261100 RRA
TAFPKB
TAF
KPKB 261144Z 2612/2712 01005KT P6SM OVC070
     FM262000 33006KT P6SM BKN035
     FM262100 33006KT 6SM -SHSN BR BKN025
     FM262200 33006KT 4SM -SHSN BR BKN015
     FM270500 34005KT P6SM BKN015
     FM270900 33005KT P6SM BKN025=

USA.gov is the U.S. government's official web portal to all federal, state and local government web resources and services.